createdAt,value
2019-05-03T00:10:19.401Z,95701.80
2019-05-03T00:25:26.069Z,95694.48
2019-05-03T00:40:32.979Z,95688.74
2019-05-03T00:55:41.882Z,95707.41
2019-05-03T01:10:48.503Z,95697.23
2019-05-03T01:25:56.123Z,95688.75
2019-05-03T01:41:03.052Z,95682.09
2019-05-03T01:56:11.722Z,95678.19
2019-05-03T02:11:18.190Z,95670.73
2019-05-03T02:26:25.405Z,95655.69
2019-05-03T02:41:34.119Z,95658.30
2019-05-03T02:56:46.023Z,95647.58
2019-05-03T03:11:55.862Z,95638.75
2019-05-03T03:27:05.801Z,95630.25
2019-05-03T03:42:16.322Z,95643.04
2019-05-03T03:57:25.662Z,95644.67
2019-05-03T04:12:35.053Z,95638.60
2019-05-03T04:27:41.899Z,95655.82
2019-05-03T04:42:48.810Z,95669.22
2019-05-03T04:57:56.238Z,95676.12
2019-05-03T05:13:05.386Z,95693.83
2019-05-03T05:28:30.184Z,95692.59
2019-05-03T05:43:37.407Z,95699.45
2019-05-03T05:58:46.002Z,95692.84
2019-05-03T06:14:05.053Z,95693.61
2019-05-03T06:29:15.024Z,95699.61
2019-05-03T06:44:37.324Z,95691.94
2019-05-03T06:59:56.508Z,95701.91
2019-05-03T07:15:05.140Z,95710.11
2019-05-03T07:30:12.753Z,95716.38
2019-05-03T07:45:20.691Z,95733.53
2019-05-03T08:00:27.588Z,95750.16
2019-05-03T08:15:36.139Z,95775.90
2019-05-03T08:30:50.593Z,95797.72
2019-05-03T08:45:57.047Z,95796.77
2019-05-03T09:01:07.409Z,95816.13
2019-05-03T09:16:15.329Z,95821.34
2019-05-03T09:31:21.858Z,95813.09
2019-05-03T09:46:29.671Z,95815.03
2019-05-03T10:01:36.486Z,95813.34
2019-05-03T10:16:51.850Z,95819.63
2019-05-03T10:32:00.551Z,95799.43
2019-05-03T10:47:08.452Z,95804.14
2019-05-03T11:02:30.929Z,95787.44
2019-05-03T11:17:38.398Z,95782.94
2019-05-03T11:32:48.000Z,95779.69
2019-05-03T11:47:55.849Z,95786.40
2019-05-03T12:03:07.395Z,95779.30
2019-05-03T12:18:16.241Z,95775.95
2019-05-03T12:33:26.040Z,95777.05
2019-05-03T12:48:32.603Z,95754.77
2019-05-03T13:03:42.105Z,95743.05
2019-05-03T13:18:49.420Z,95748.42
2019-05-03T13:33:56.412Z,95818.16
2019-05-03T13:49:05.381Z,95842.45
2019-05-03T14:04:14.810Z,95847.92
2019-05-03T14:19:25.941Z,95873.33
2019-05-03T14:34:32.836Z,95880.72
2019-05-03T14:49:39.788Z,95900.34
2019-05-03T15:04:46.768Z,95921.74
2019-05-03T15:19:54.742Z,95935.61
2019-05-03T15:35:01.822Z,95945.00
2019-05-03T15:50:09.244Z,95959.80
2019-05-03T16:05:15.629Z,95941.28
2019-05-03T16:20:22.540Z,95958.56
2019-05-03T16:35:30.483Z,95966.10
2019-05-03T16:50:39.167Z,95969.35
2019-05-03T17:05:56.478Z,95983.97
2019-05-03T17:21:03.214Z,95982.19
2019-05-03T17:36:10.057Z,96001.97
2019-05-03T17:51:35.115Z,96013.84
2019-05-03T18:06:45.261Z,96027.30
2019-05-03T18:21:52.783Z,96039.38
2019-05-03T18:36:59.741Z,96054.16
2019-05-03T18:52:07.011Z,96054.34
2019-05-03T19:07:18.358Z,96063.40
2019-05-03T19:22:25.391Z,96071.47
2019-05-03T19:37:32.328Z,96084.25
2019-05-03T19:52:57.144Z,96089.97
2019-05-03T20:08:12.907Z,96089.73
2019-05-03T20:23:39.307Z,96087.95
2019-05-03T20:38:48.269Z,96095.19
2019-05-03T20:53:55.350Z,96090.73
2019-05-03T21:09:04.623Z,96089.80
2019-05-03T21:24:14.832Z,96090.21
2019-05-03T21:39:21.917Z,96076.05
2019-05-03T21:54:31.487Z,96083.43
2019-05-03T22:09:41.307Z,96079.66
2019-05-03T22:24:50.842Z,96074.73
2019-05-03T22:39:58.944Z,96069.24
2019-05-03T22:55:08.334Z,96044.21
2019-05-03T23:10:17.494Z,96055.56
2019-05-03T23:25:25.078Z,96062.05
2019-05-03T23:40:32.101Z,96058.81
2019-05-03T23:55:40.539Z,96036.77
